createdAt,value
2023-09-10T00:01:22.922Z,101632.00
2023-09-10T00:03:49.858Z,101632.00
2023-09-10T00:06:18.876Z,101632.00
2023-09-10T00:08:50.297Z,101633.00
2023-09-10T00:11:17.056Z,101622.00
2023-09-10T00:13:45.943Z,101640.00
2023-09-10T00:16:15.012Z,101635.00
2023-09-10T00:18:41.708Z,101633.00
2023-09-10T00:21:08.410Z,101630.00
2023-09-10T00:23:35.158Z,101627.00
2023-09-10T00:26:04.081Z,101631.00
2023-09-10T00:28:33.173Z,101629.00
2023-09-10T00:30:59.870Z,101622.00
2023-09-10T00:33:26.630Z,101624.00
2023-09-10T00:35:53.338Z,101617.00
2023-09-10T00:38:20.039Z,101623.00
2023-09-10T00:40:49.185Z,101616.00
2023-09-10T00:43:15.957Z,101618.00
2023-09-10T00:45:42.946Z,101624.00
2023-09-10T00:48:09.726Z,101619.00
2023-09-10T00:50:39.032Z,101620.00
2023-09-10T00:53:06.669Z,101621.00
2023-09-10T00:55:36.168Z,101618.00
2023-09-10T00:58:05.266Z,101613.00
2023-09-10T01:00:33.868Z,101615.00
2023-09-10T01:03:00.721Z,101613.00
2023-09-10T01:05:27.701Z,101613.00
2023-09-10T01:07:55.159Z,101618.00
2023-09-10T01:10:27.113Z,101619.00
2023-09-10T01:13:02.146Z,101618.00
2023-09-10T01:15:41.401Z,101620.00
2023-09-10T01:18:22.719Z,101627.00
2023-09-10T01:21:14.102Z,101623.00
2023-09-10T01:23:49.912Z,101620.00
2023-09-10T01:26:16.576Z,101622.00
2023-09-10T01:28:43.274Z,101626.00
2023-09-10T01:31:12.257Z,101630.00
2023-09-10T01:33:50.192Z,101626.00
2023-09-10T01:36:22.158Z,101626.00
2023-09-10T01:38:52.478Z,101622.00
2023-09-10T01:41:23.032Z,101622.00
2023-09-10T01:43:50.527Z,101627.00
2023-09-10T01:46:17.593Z,101633.00
2023-09-10T01:48:44.850Z,101628.00
2023-09-10T01:51:11.718Z,101620.00
2023-09-10T01:53:38.533Z,101632.00
2023-09-10T01:56:05.611Z,101630.00
2023-09-10T01:58:34.839Z,101626.00
2023-09-10T02:01:01.599Z,101625.00
2023-09-10T02:03:28.930Z,101625.00
2023-09-10T02:06:04.566Z,101631.00
2023-09-10T02:08:31.804Z,101631.00
2023-09-10T02:10:58.577Z,101630.00
2023-09-10T02:13:27.471Z,101626.00
2023-09-10T02:15:54.292Z,101624.00
2023-09-10T02:18:21.255Z,101634.00
2023-09-10T02:20:47.891Z,101627.00
2023-09-10T02:23:14.590Z,101631.00
2023-09-10T02:25:42.876Z,101622.00
2023-09-10T02:28:10.515Z,101632.00
2023-09-10T02:30:41.866Z,101628.00
2023-09-10T02:33:10.701Z,101620.00
2023-09-10T02:35:37.498Z,101622.00
2023-09-10T02:38:04.544Z,101627.00
2023-09-10T02:40:31.243Z,101623.00
2023-09-10T02:42:57.900Z,101612.00
2023-09-10T02:45:24.687Z,101622.00
2023-09-10T02:47:53.650Z,101624.00
2023-09-10T02:50:20.330Z,101621.00
2023-09-10T02:52:47.080Z,101622.00
2023-09-10T02:55:13.798Z,101619.00
2023-09-10T02:57:40.439Z,101608.00
2023-09-10T03:00:12.453Z,101613.00
2023-09-10T03:02:42.005Z,101615.00
2023-09-10T03:05:13.525Z,101616.00
2023-09-10T03:07:42.596Z,101616.00
2023-09-10T03:10:09.578Z,101617.00
2023-09-10T03:12:36.399Z,101621.00
2023-09-10T03:15:08.530Z,101614.00
2023-09-10T03:17:37.650Z,101618.00
2023-09-10T03:20:06.235Z,101614.00
2023-09-10T03:22:35.112Z,101617.00
2023-09-10T03:25:01.837Z,101620.00
2023-09-10T03:27:28.479Z,101617.00
2023-09-10T03:29:57.380Z,101613.00
2023-09-10T03:32:24.126Z,101608.00
2023-09-10T03:34:53.399Z,101608.00
2023-09-10T03:37:20.312Z,101605.00
2023-09-10T03:39:46.978Z,101606.00
2023-09-10T03:42:17.647Z,101603.00
2023-09-10T03:44:46.672Z,101600.00
2023-09-10T03:47:13.446Z,101601.00
2023-09-10T03:49:42.340Z,101599.00
2023-09-10T03:52:22.015Z,101597.00
2023-09-10T03:54:49.407Z,101598.00
2023-09-10T03:57:16.254Z,101599.00
2023-09-10T03:59:42.997Z,101598.00
2023-09-10T04:02:10.420Z,101589.00
2023-09-10T04:04:39.641Z,101594.00
2023-09-10T04:07:06.344Z,101595.00
2023-09-10T04:09:33.301Z,101593.00
2023-09-10T04:12:00.153Z,101602.00
2023-09-10T04:14:27.896Z,101595.00
2023-09-10T04:16:54.717Z,101606.00
2023-09-10T04:19:23.445Z,101596.00
2023-09-10T04:21:50.239Z,101594.00
2023-09-10T04:24:16.925Z,101592.00
2023-09-10T04:26:43.773Z,101605.00
2023-09-10T04:29:10.937Z,101604.00
2023-09-10T04:31:41.314Z,101600.00
2023-09-10T04:34:08.014Z,101607.00
2023-09-10T04:36:34.700Z,101602.00
2023-09-10T04:39:01.364Z,101601.00
2023-09-10T04:41:28.059Z,101607.00
2023-09-10T04:43:54.783Z,101607.00
2023-09-10T04:46:21.962Z,101605.00
2023-09-10T04:48:51.239Z,101615.00
2023-09-10T04:51:20.503Z,101608.00
2023-09-10T04:53:47.301Z,101606.00
2023-09-10T04:56:14.085Z,101609.00
2023-09-10T04:58:43.318Z,101606.00
2023-09-10T05:01:10.070Z,101614.00
2023-09-10T05:03:37.052Z,101614.00
2023-09-10T05:06:06.701Z,101606.00
2023-09-10T05:08:33.403Z,101613.00
2023-09-10T05:11:00.106Z,101613.00
2023-09-10T05:13:26.935Z,101612.00
2023-09-10T05:15:59.593Z,101605.00
2023-09-10T05:18:26.517Z,101609.00
2023-09-10T05:20:54.350Z,101609.00
2023-09-10T05:23:23.786Z,101607.00
2023-09-10T05:25:53.098Z,101604.00
2023-09-10T05:28:19.894Z,101604.00
2023-09-10T05:30:49.087Z,101612.00
2023-09-10T05:33:15.719Z,101607.00
2023-09-10T05:35:54.721Z,101602.00
2023-09-10T05:38:21.447Z,101608.00
2023-09-10T05:40:50.449Z,101608.00
2023-09-10T05:43:19.457Z,101613.00
2023-09-10T05:45:47.546Z,101613.00
2023-09-10T05:48:16.805Z,101607.00
2023-09-10T05:50:45.739Z,101619.00
2023-09-10T05:53:12.598Z,101615.00
2023-09-10T05:55:40.621Z,101607.00
2023-09-10T05:58:12.691Z,101609.00
2023-09-10T06:00:39.430Z,101617.00
2023-09-10T06:03:08.526Z,101614.00
2023-09-10T06:05:40.992Z,101614.00
2023-09-10T06:08:10.030Z,101619.00
2023-09-10T06:10:36.759Z,101620.00
2023-09-10T06:13:03.662Z,101627.00
2023-09-10T06:15:32.855Z,101630.00
2023-09-10T06:18:01.819Z,101635.00
2023-09-10T06:20:28.505Z,101636.00
2023-09-10T06:22:58.540Z,101631.00
2023-09-10T06:25:25.553Z,101638.00
2023-09-10T06:27:55.406Z,101641.00
2023-09-10T06:30:22.194Z,101639.00
2023-09-10T06:32:52.112Z,101639.00
2023-09-10T06:35:21.380Z,101646.00
2023-09-10T06:37:49.115Z,101647.00
2023-09-10T06:40:18.340Z,101647.00
2023-09-10T06:42:45.397Z,101643.00
2023-09-10T06:45:12.090Z,101651.00
2023-09-10T06:47:41.380Z,101649.00
2023-09-10T06:50:08.378Z,101654.00
2023-09-10T06:52:35.052Z,101648.00
2023-09-10T06:55:04.958Z,101651.00
2023-09-10T06:57:34.071Z,101649.00
2023-09-10T07:00:06.060Z,101664.00
2023-09-10T07:02:32.806Z,101654.00
2023-09-10T07:05:02.476Z,101656.00
2023-09-10T07:07:29.295Z,101653.00
2023-09-10T07:10:00.718Z,101644.00
2023-09-10T07:12:27.373Z,101657.00
2023-09-10T07:14:55.250Z,101656.00
2023-09-10T07:17:27.049Z,101665.00
2023-09-10T07:19:53.853Z,101659.00
2023-09-10T07:22:20.600Z,101660.00
2023-09-10T07:24:47.269Z,101662.00
2023-09-10T07:27:16.270Z,101658.00
2023-09-10T07:29:42.892Z,101654.00
2023-09-10T07:32:11.674Z,101652.00
2023-09-10T07:34:38.475Z,101652.00
2023-09-10T07:37:07.249Z,101654.00
2023-09-10T07:39:38.613Z,101657.00
2023-09-10T07:42:05.668Z,101654.00
2023-09-10T07:44:35.677Z,101652.00
2023-09-10T07:47:02.470Z,101650.00
2023-09-10T07:49:29.539Z,101647.00
2023-09-10T07:51:56.203Z,101649.00
2023-09-10T07:54:22.936Z,101652.00
2023-09-10T07:56:51.085Z,101647.00
2023-09-10T07:59:18.000Z,101656.00
2023-09-10T08:01:47.682Z,101657.00
2023-09-10T08:04:17.161Z,101656.00
2023-09-10T08:06:43.934Z,101669.00
2023-09-10T08:09:10.975Z,101663.00
2023-09-10T08:11:40.099Z,101658.00
2023-09-10T08:14:10.185Z,101661.00
2023-09-10T08:16:39.194Z,101666.00
2023-09-10T08:19:11.827Z,101669.00
2023-09-10T08:21:41.225Z,101670.00
2023-09-10T08:24:10.194Z,101662.00
2023-09-10T08:26:43.346Z,101661.00
2023-09-10T08:29:16.687Z,101657.00
2023-09-10T08:31:47.114Z,101667.00
2023-09-10T08:34:17.366Z,101657.00
2023-09-10T08:36:45.844Z,101666.00
2023-09-10T08:39:13.664Z,101663.00
2023-09-10T08:42:02.926Z,101662.00
2023-09-10T08:44:34.302Z,101667.00
2023-09-10T08:47:02.564Z,101665.00
2023-09-10T08:49:33.605Z,101657.00
2023-09-10T08:52:03.067Z,101664.00
2023-09-10T08:54:30.571Z,101669.00
2023-09-10T08:56:59.966Z,101669.00
2023-09-10T08:59:29.326Z,101671.00
2023-09-10T09:02:00.509Z,101666.00
2023-09-10T09:04:31.647Z,101665.00
2023-09-10T09:07:02.142Z,101670.00
2023-09-10T09:09:34.491Z,101663.00
2023-09-10T09:12:05.176Z,101667.00
2023-09-10T09:14:37.669Z,101669.00
2023-09-10T09:17:06.432Z,101675.00
2023-09-10T09:19:36.734Z,101674.00
2023-09-10T09:22:07.016Z,101674.00
2023-09-10T09:24:39.591Z,101672.00
2023-09-10T09:27:13.428Z,101674.00
2023-09-10T09:29:40.689Z,101676.00
2023-09-10T09:32:07.351Z,101676.00
2023-09-10T09:34:34.494Z,101670.00
2023-09-10T09:37:02.454Z,101676.00
2023-09-10T09:39:31.051Z,101675.00
2023-09-10T09:41:59.954Z,101674.00
2023-09-10T09:44:31.396Z,101663.00
2023-09-10T09:46:58.796Z,101673.00
2023-09-10T09:49:26.840Z,101673.00
2023-09-10T09:51:54.018Z,101661.00
2023-09-10T09:54:26.611Z,101671.00
2023-09-10T09:56:53.330Z,101667.00
2023-09-10T09:59:20.845Z,101674.00
2023-09-10T10:01:48.000Z,101668.00
2023-09-10T10:04:19.660Z,101674.00
2023-09-10T10:06:49.642Z,101675.00
2023-09-10T10:09:20.302Z,101677.00
2023-09-10T10:11:47.425Z,101672.00
2023-09-10T10:14:18.342Z,101670.00
2023-09-10T10:16:45.689Z,101668.00
2023-09-10T10:19:13.266Z,101672.00
2023-09-10T10:21:40.856Z,101665.00
2023-09-10T10:24:08.532Z,101658.00
2023-09-10T10:26:35.807Z,101666.00
2023-09-10T10:29:05.706Z,101660.00
2023-09-10T10:31:38.046Z,101662.00
2023-09-10T10:34:12.231Z,101663.00
2023-09-10T10:37:14.590Z,101663.00
2023-09-10T10:39:48.152Z,101651.00
2023-09-10T10:42:19.120Z,101657.00
2023-09-10T10:44:52.062Z,101648.00
2023-09-10T10:47:23.505Z,101646.00
2023-09-10T10:49:54.804Z,101644.00
2023-09-10T10:52:27.058Z,101651.00
2023-09-10T10:54:54.857Z,101643.00
2023-09-10T10:57:22.850Z,101643.00
2023-09-10T10:59:50.403Z,101639.00
2023-09-10T11:02:27.555Z,101645.00
2023-09-10T11:05:02.768Z,101643.00
2023-09-10T11:07:33.079Z,101637.00
2023-09-10T11:10:01.561Z,101641.00
2023-09-10T11:12:30.818Z,101639.00
2023-09-10T11:15:02.535Z,101638.00
2023-09-10T11:17:33.373Z,101632.00
2023-09-10T11:20:01.683Z,101641.00
2023-09-10T11:22:28.564Z,101635.00
2023-09-10T11:25:08.337Z,101637.00
2023-09-10T11:27:35.693Z,101642.00
2023-09-10T11:30:09.523Z,101650.00
2023-09-10T11:32:36.772Z,101640.00
2023-09-10T11:35:18.781Z,101640.00
2023-09-10T11:37:53.930Z,101646.00
2023-09-10T11:40:23.031Z,101642.00
2023-09-10T11:42:52.987Z,101639.00
2023-09-10T11:45:20.455Z,101630.00
2023-09-10T11:47:49.548Z,101632.00
2023-09-10T11:50:23.302Z,101629.00
2023-09-10T11:52:50.585Z,101633.00
2023-09-10T11:55:20.119Z,101613.00
2023-09-10T11:57:51.516Z,101616.00
2023-09-10T12:00:19.135Z,101618.00
2023-09-10T12:02:45.983Z,101618.00
2023-09-10T12:05:12.818Z,101626.00
2023-09-10T12:07:44.517Z,101615.00
2023-09-10T12:10:14.012Z,101620.00
2023-09-10T12:12:43.615Z,101613.00
2023-09-10T12:15:10.940Z,101612.00
2023-09-10T12:17:37.880Z,101600.00
2023-09-10T12:20:05.143Z,101604.00
2023-09-10T12:22:33.985Z,101604.00
2023-09-10T12:25:01.664Z,101607.00
2023-09-10T12:27:28.280Z,101598.00
2023-09-10T12:29:57.660Z,101592.00
2023-09-10T12:32:26.934Z,101597.00
2023-09-10T12:34:58.405Z,101593.00
2023-09-10T12:37:25.188Z,101590.00
2023-09-10T12:39:53.572Z,101591.00
2023-09-10T12:42:25.614Z,101598.00
2023-09-10T12:44:52.286Z,101589.00
2023-09-10T12:47:19.046Z,101590.00
2023-09-10T12:49:49.214Z,101589.00
2023-09-10T12:52:16.049Z,101582.00
2023-09-10T12:54:43.057Z,101586.00
2023-09-10T12:57:13.883Z,101585.00
2023-09-10T12:59:42.808Z,101575.00
2023-09-10T13:02:12.044Z,101574.00
2023-09-10T13:04:41.221Z,101574.00
2023-09-10T13:07:11.885Z,101581.00
2023-09-10T13:09:41.003Z,101577.00
2023-09-10T13:12:08.091Z,101575.00
2023-09-10T13:14:40.872Z,101579.00
2023-09-10T13:17:11.488Z,101574.00
2023-09-10T13:19:38.669Z,101568.00
2023-09-10T13:22:10.643Z,101574.00
2023-09-10T13:24:37.300Z,101564.00
2023-09-10T13:27:06.895Z,101565.00
2023-09-10T13:29:33.654Z,101562.00
2023-09-10T13:32:03.175Z,101560.00
2023-09-10T13:34:32.948Z,101566.00
2023-09-10T13:36:59.691Z,101566.00
2023-09-10T13:39:35.285Z,101560.00
2023-09-10T13:42:03.447Z,101563.00
2023-09-10T13:44:30.383Z,101559.00
2023-09-10T13:46:57.137Z,101558.00
2023-09-10T13:49:23.926Z,101557.00
2023-09-10T13:51:54.273Z,101562.00
2023-09-10T13:54:20.948Z,101558.00
2023-09-10T13:56:47.721Z,101552.00
2023-09-10T13:59:15.007Z,101556.00
2023-09-10T14:01:43.227Z,101554.00
2023-09-10T14:04:12.120Z,101539.00
2023-09-10T14:06:38.922Z,101539.00
2023-09-10T14:09:05.641Z,101535.00
2023-09-10T14:11:32.372Z,101531.00
2023-09-10T14:13:59.055Z,101530.00
2023-09-10T14:16:26.152Z,101535.00
2023-09-10T14:18:52.823Z,101530.00
2023-09-10T14:21:22.360Z,101523.00
2023-09-10T14:23:49.123Z,101534.00
2023-09-10T14:26:15.906Z,101524.00
2023-09-10T14:28:44.958Z,101526.00
2023-09-10T14:31:14.004Z,101523.00
2023-09-10T14:33:45.531Z,101527.00
2023-09-10T14:36:12.230Z,101527.00
2023-09-10T14:38:42.286Z,101517.00
2023-09-10T14:41:09.140Z,101519.00
2023-09-10T14:43:38.679Z,101514.00
2023-09-10T14:46:06.013Z,101513.00
2023-09-10T14:48:32.718Z,101514.00
2023-09-10T14:50:59.387Z,101510.00
2023-09-10T14:53:26.168Z,101509.00
2023-09-10T14:55:52.942Z,101506.00
2023-09-10T14:58:19.700Z,101502.00
2023-09-10T15:00:46.439Z,101504.00
2023-09-10T15:03:13.324Z,101499.00
2023-09-10T15:05:41.383Z,101494.00
2023-09-10T15:08:10.820Z,101501.00
2023-09-10T15:10:39.990Z,101503.00
2023-09-10T15:13:06.699Z,101497.00
2023-09-10T15:15:35.911Z,101500.00
2023-09-10T15:18:02.703Z,101496.00
2023-09-10T15:20:29.519Z,101495.00
2023-09-10T15:22:56.242Z,101500.00
2023-09-10T15:25:25.484Z,101503.00
2023-09-10T15:27:54.759Z,101499.00
2023-09-10T15:30:23.611Z,101492.00
2023-09-10T15:32:50.382Z,101497.00
2023-09-10T15:35:17.157Z,101490.00
2023-09-10T15:37:46.452Z,101494.00
2023-09-10T15:40:13.267Z,101492.00
2023-09-10T15:42:39.973Z,101488.00
2023-09-10T15:45:07.413Z,101488.00
2023-09-10T15:47:36.713Z,101488.00
2023-09-10T15:50:05.808Z,101480.00
2023-09-10T15:52:35.042Z,101483.00
2023-09-10T15:55:04.882Z,101482.00
2023-09-10T15:57:31.707Z,101472.00
2023-09-10T16:00:03.678Z,101467.00
2023-09-10T16:02:33.098Z,101469.00
2023-09-10T16:05:00.273Z,101459.00
2023-09-10T16:07:27.286Z,101465.00
2023-09-10T16:09:56.538Z,101466.00
2023-09-10T16:12:24.146Z,101466.00
2023-09-10T16:15:09.269Z,101466.00
2023-09-10T16:17:36.398Z,101465.00
2023-09-10T16:20:03.791Z,101464.00
2023-09-10T16:22:35.672Z,101466.00
2023-09-10T16:25:02.400Z,101466.00
2023-09-10T16:27:29.185Z,101464.00
2023-09-10T16:29:55.891Z,101466.00
2023-09-10T16:32:25.115Z,101463.00
2023-09-10T16:34:51.838Z,101459.00
2023-09-10T16:37:23.271Z,101458.00
2023-09-10T16:39:50.086Z,101458.00
2023-09-10T16:42:16.986Z,101456.00
2023-09-10T16:44:43.761Z,101458.00
2023-09-10T16:47:10.512Z,101461.00
2023-09-10T16:49:37.419Z,101452.00
2023-09-10T16:52:05.299Z,101448.00
2023-09-10T16:54:34.351Z,101453.00
2023-09-10T16:57:01.071Z,101456.00
2023-09-10T16:59:28.037Z,101451.00
2023-09-10T17:01:55.041Z,101454.00
2023-09-10T17:04:21.743Z,101460.00
2023-09-10T17:06:48.424Z,101465.00
2023-09-10T17:09:15.452Z,101461.00
2023-09-10T17:11:42.418Z,101461.00
2023-09-10T17:14:12.218Z,101476.00
2023-09-10T17:16:38.902Z,101466.00
2023-09-10T17:19:10.770Z,101466.00
2023-09-10T17:21:37.452Z,101457.00
2023-09-10T17:24:04.489Z,101462.00
2023-09-10T17:26:33.709Z,101466.00
2023-09-10T17:29:04.879Z,101454.00
2023-09-10T17:31:32.375Z,101454.00
2023-09-10T17:34:01.487Z,101455.00
2023-09-10T17:36:30.728Z,101451.00
2023-09-10T17:38:57.390Z,101449.00
2023-09-10T17:41:24.146Z,101441.00
2023-09-10T17:43:51.152Z,101454.00
2023-09-10T17:46:20.326Z,101456.00
2023-09-10T17:48:47.279Z,101447.00
2023-09-10T17:51:20.532Z,101452.00
2023-09-10T17:53:50.078Z,101442.00
2023-09-10T17:56:18.162Z,101442.00
2023-09-10T17:58:44.998Z,101440.00
2023-09-10T18:01:11.728Z,101442.00
2023-09-10T18:03:38.631Z,101435.00
2023-09-10T18:06:05.536Z,101439.00
2023-09-10T18:08:34.849Z,101440.00
2023-09-10T18:11:01.674Z,101448.00
2023-09-10T18:13:28.423Z,101446.00
2023-09-10T18:15:55.286Z,101444.00
2023-09-10T18:18:22.237Z,101448.00
2023-09-10T18:20:49.029Z,101446.00
2023-09-10T18:23:18.262Z,101452.00
2023-09-10T18:25:45.053Z,101447.00
2023-09-10T18:28:14.222Z,101450.00
2023-09-10T18:30:40.974Z,101448.00
2023-09-10T18:33:07.831Z,101442.00
2023-09-10T18:35:40.348Z,101443.00
2023-09-10T18:38:09.458Z,101441.00
2023-09-10T18:40:43.334Z,101443.00
2023-09-10T18:43:09.998Z,101444.00
2023-09-10T18:45:36.728Z,101441.00
2023-09-10T18:48:08.155Z,101451.00
2023-09-10T18:50:34.867Z,101454.00
2023-09-10T18:53:03.852Z,101462.00
2023-09-10T18:55:30.997Z,101456.00
2023-09-10T18:58:00.155Z,101453.00
2023-09-10T19:00:26.995Z,101449.00
2023-09-10T19:02:54.005Z,101458.00
2023-09-10T19:05:20.882Z,101446.00
2023-09-10T19:07:47.640Z,101439.00
2023-09-10T19:10:16.673Z,101438.00
2023-09-10T19:12:44.984Z,101437.00
2023-09-10T19:15:11.974Z,101437.00
2023-09-10T19:17:41.045Z,101441.00
2023-09-10T19:20:10.788Z,101438.00
2023-09-10T19:22:37.660Z,101430.00
2023-09-10T19:25:07.099Z,101421.00
2023-09-10T19:27:35.933Z,101420.00
2023-09-10T19:30:02.671Z,101429.00
2023-09-10T19:32:29.536Z,101422.00
2023-09-10T19:34:59.182Z,101424.00
2023-09-10T19:37:27.987Z,101424.00
2023-09-10T19:39:58.821Z,101435.00
2023-09-10T19:42:27.719Z,101438.00
2023-09-10T19:44:54.375Z,101442.00
2023-09-10T19:47:21.150Z,101444.00
2023-09-10T19:49:51.690Z,101441.00
2023-09-10T19:52:18.422Z,101429.00
2023-09-10T19:54:52.817Z,101440.00
2023-09-10T19:57:26.111Z,101429.00
2023-09-10T19:59:57.500Z,101421.00
2023-09-10T20:02:26.575Z,101425.00
2023-09-10T20:04:56.218Z,101430.00
2023-09-10T20:07:23.131Z,101421.00
2023-09-10T20:09:51.357Z,101412.00
2023-09-10T20:12:22.394Z,101405.00
2023-09-10T20:14:50.416Z,101404.00
2023-09-10T20:17:21.296Z,101407.00
2023-09-10T20:19:53.066Z,101412.00
2023-09-10T20:22:19.726Z,101404.00
2023-09-10T20:24:46.381Z,101410.00
2023-09-10T20:27:13.331Z,101405.00
2023-09-10T20:29:42.827Z,101409.00
2023-09-10T20:32:12.633Z,101410.00
2023-09-10T20:34:42.338Z,101404.00
2023-09-10T20:37:09.001Z,101405.00
2023-09-10T20:39:35.949Z,101395.00
2023-09-10T20:42:03.640Z,101404.00
2023-09-10T20:44:30.599Z,101396.00
2023-09-10T20:46:57.428Z,101400.00
2023-09-10T20:49:26.539Z,101395.00
2023-09-10T20:51:56.268Z,101397.00
2023-09-10T20:54:22.939Z,101388.00
2023-09-10T20:56:49.653Z,101390.00
2023-09-10T20:59:16.553Z,101399.00
2023-09-10T21:01:43.461Z,101400.00
2023-09-10T21:04:15.071Z,101405.00
2023-09-10T21:06:44.203Z,101401.00
2023-09-10T21:09:11.116Z,101408.00
2023-09-10T21:11:42.604Z,101399.00
2023-09-10T21:14:09.293Z,101404.00
2023-09-10T21:16:36.131Z,101406.00
2023-09-10T21:19:03.218Z,101394.00
2023-09-10T21:21:34.787Z,101399.00
2023-09-10T21:24:06.452Z,101397.00
2023-09-10T21:26:33.195Z,101400.00
2023-09-10T21:29:01.978Z,101395.00
2023-09-10T21:31:28.643Z,101390.00
2023-09-10T21:33:57.795Z,101396.00
2023-09-10T21:36:24.471Z,101392.00
2023-09-10T21:38:51.153Z,101396.00
2023-09-10T21:41:17.889Z,101401.00
2023-09-10T21:43:47.032Z,101387.00
2023-09-10T21:46:16.009Z,101385.00
2023-09-10T21:48:43.038Z,101383.00
2023-09-10T21:51:10.086Z,101381.00
2023-09-10T21:53:36.821Z,101381.00
2023-09-10T21:56:06.014Z,101382.00
2023-09-10T21:58:32.854Z,101392.00
2023-09-10T22:01:01.807Z,101380.00
2023-09-10T22:03:31.156Z,101391.00
2023-09-10T22:05:58.257Z,101394.00
2023-09-10T22:08:30.816Z,101395.00
2023-09-10T22:11:01.699Z,101402.00
2023-09-10T22:13:28.693Z,101403.00
2023-09-10T22:15:58.240Z,101413.00
2023-09-10T22:18:26.026Z,101428.00
2023-09-10T22:20:55.190Z,101424.00
2023-09-10T22:23:22.555Z,101423.00
2023-09-10T22:25:50.290Z,101419.00
2023-09-10T22:28:22.510Z,101422.00
2023-09-10T22:30:52.231Z,101422.00
2023-09-10T22:33:19.252Z,101422.00
2023-09-10T22:35:45.954Z,101425.00
2023-09-10T22:38:12.699Z,101421.00
2023-09-10T22:40:39.372Z,101433.00
2023-09-10T22:43:08.308Z,101430.00
2023-09-10T22:45:35.610Z,101441.00
2023-09-10T22:48:07.102Z,101432.00
2023-09-10T22:50:33.942Z,101432.00
2023-09-10T22:53:02.667Z,101426.00
2023-09-10T22:55:34.158Z,101429.00
2023-09-10T22:58:01.008Z,101425.00
2023-09-10T23:00:28.022Z,101434.00
2023-09-10T23:02:57.068Z,101429.00
2023-09-10T23:05:26.161Z,101426.00
2023-09-10T23:07:52.858Z,101425.00
2023-09-10T23:10:21.934Z,101422.00
2023-09-10T23:12:54.638Z,101428.00
2023-09-10T23:15:21.980Z,101422.00
2023-09-10T23:17:48.904Z,101417.00
2023-09-10T23:20:18.275Z,101421.00
2023-09-10T23:22:45.011Z,101426.00
2023-09-10T23:25:11.685Z,101420.00
2023-09-10T23:27:38.347Z,101422.00
2023-09-10T23:30:05.490Z,101425.00
2023-09-10T23:32:34.564Z,101421.00
2023-09-10T23:35:01.385Z,101421.00
2023-09-10T23:37:28.166Z,101417.00
2023-09-10T23:39:57.067Z,101419.00
2023-09-10T23:42:26.035Z,101416.00
2023-09-10T23:44:52.820Z,101416.00
2023-09-10T23:47:19.646Z,101409.00
2023-09-10T23:49:48.513Z,101412.00
2023-09-10T23:52:15.228Z,101402.00
2023-09-10T23:54:48.866Z,101400.00
2023-09-10T23:57:15.591Z,101400.00
2023-09-10T23:59:42.648Z,101395.00
